sensor_id;sensor_type;location;lat;lon;timestamp;P1;durP1;ratioP1;P2;durP2;ratioP2
19024;SDS011;9645;51.448;6.260;2022-12-29T00:01:26;1.30;;;1.30;;
19024;SDS011;9645;51.448;6.260;2022-12-29T00:03:54;2.00;;;1.35;;
19024;SDS011;9645;51.448;6.260;2022-12-29T00:06:21;3.25;;;1.60;;
19024;SDS011;9645;51.448;6.260;2022-12-29T00:08:48;2.20;;;2.00;;
19024;SDS011;9645;51.448;6.260;2022-12-29T00:11:16;4.20;;;1.67;;
19024;SDS011;9645;51.448;6.260;2022-12-29T00:13:44;2.08;;;1.67;;
19024;SDS011;9645;51.448;6.260;2022-12-29T00:16:29;1.88;;;1.70;;
19024;SDS011;9645;51.448;6.260;2022-12-29T00:18:58;1.50;;;1.40;;
19024;SDS011;9645;51.448;6.260;2022-12-29T00:21:26;2.08;;;1.73;;
19024;SDS011;9645;51.448;6.260;2022-12-29T00:24:12;1.77;;;1.63;;
19024;SDS011;9645;51.448;6.260;2022-12-29T00:27:03;1.60;;;1.50;;
19024;SDS011;9645;51.448;6.260;2022-12-29T00:29:56;2.92;;;1.90;;
19024;SDS011;9645;51.448;6.260;2022-12-29T00:32:41;1.33;;;1.23;;
19024;SDS011;9645;51.448;6.260;2022-12-29T00:35:28;1.50;;;1.40;;
19024;SDS011;9645;51.448;6.260;2022-12-29T00:37:57;1.27;;;1.27;;
19024;SDS011;9645;51.448;6.260;2022-12-29T00:40:45;1.50;;;1.40;;
19024;SDS011;9645;51.448;6.260;2022-12-29T00:43:29;2.67;;;1.45;;
19024;SDS011;9645;51.448;6.260;2022-12-29T00:46:13;1.25;;;1.17;;
19024;SDS011;9645;51.448;6.260;2022-12-29T00:48:41;1.38;;;1.27;;
19024;SDS011;9645;51.448;6.260;2022-12-29T00:51:27;1.40;;;1.30;;
19024;SDS011;9645;51.448;6.260;2022-12-29T00:53:53;1.27;;;1.17;;
19024;SDS011;9645;51.448;6.260;2022-12-29T00:56:21;1.48;;;1.38;;
19024;SDS011;9645;51.448;6.260;2022-12-29T00:58:48;1.20;;;1.20;;
19024;SDS011;9645;51.448;6.260;2022-12-29T01:01:23;1.25;;;1.08;;
19024;SDS011;9645;51.448;6.260;2022-12-29T01:03:50;1.40;;;1.30;;
19024;SDS011;9645;51.448;6.260;2022-12-29T01:06:17;1.40;;;1.30;;
19024;SDS011;9645;51.448;6.260;2022-12-29T01:08:47;2.55;;;1.75;;
19024;SDS011;9645;51.448;6.260;2022-12-29T01:11:34;1.30;;;0.98;;
19024;SDS011;9645;51.448;6.260;2022-12-29T01:14:00;1.00;;;0.77;;
19024;SDS011;9645;51.448;6.260;2022-12-29T01:16:27;1.10;;;1.00;;
19024;SDS011;9645;51.448;6.260;2022-12-29T01:18:54;1.52;;;1.05;;
19024;SDS011;9645;51.448;6.260;2022-12-29T01:21:21;1.98;;;0.95;;
19024;SDS011;9645;51.448;6.260;2022-12-29T01:23:49;1.35;;;0.90;;
19024;SDS011;9645;51.448;6.260;2022-12-29T01:26:17;1.00;;;0.98;;
19024;SDS011;9645;51.448;6.260;2022-12-29T01:28:44;1.25;;;1.10;;
19024;SDS011;9645;51.448;6.260;2022-12-29T01:31:12;3.45;;;1.15;;
19024;SDS011;9645;51.448;6.260;2022-12-29T01:33:40;0.80;;;0.80;;
19024;SDS011;9645;51.448;6.260;2022-12-29T01:36:08;3.75;;;0.90;;
19024;SDS011;9645;51.448;6.260;2022-12-29T01:38:36;0.93;;;0.90;;
19024;SDS011;9645;51.448;6.260;2022-12-29T01:41:06;0.90;;;0.90;;
19024;SDS011;9645;51.448;6.260;2022-12-29T01:43:44;0.60;;;0.60;;
19024;SDS011;9645;51.448;6.260;2022-12-29T01:46:18;0.80;;;0.80;;
19024;SDS011;9645;51.448;6.260;2022-12-29T01:48:49;0.90;;;0.90;;
19024;SDS011;9645;51.448;6.260;2022-12-29T01:51:19;1.35;;;0.80;;
19024;SDS011;9645;51.448;6.260;2022-12-29T01:53:47;1.63;;;0.90;;
19024;SDS011;9645;51.448;6.260;2022-12-29T01:56:17;0.88;;;0.88;;
19024;SDS011;9645;51.448;6.260;2022-12-29T01:58:47;1.63;;;0.82;;
19024;SDS011;9645;51.448;6.260;2022-12-29T02:01:18;2.25;;;1.00;;
19024;SDS011;9645;51.448;6.260;2022-12-29T02:03:46;7.32;;;1.02;;
19024;SDS011;9645;51.448;6.260;2022-12-29T02:06:14;0.93;;;0.85;;
19024;SDS011;9645;51.448;6.260;2022-12-29T02:08:45;4.90;;;0.90;;
19024;SDS011;9645;51.448;6.260;2022-12-29T02:11:13;1.88;;;0.77;;
19024;SDS011;9645;51.448;6.260;2022-12-29T02:13:43;3.95;;;0.82;;
19024;SDS011;9645;51.448;6.260;2022-12-29T02:16:14;1.75;;;0.65;;
19024;SDS011;9645;51.448;6.260;2022-12-29T02:18:54;4.88;;;0.80;;
19024;SDS011;9645;51.448;6.260;2022-12-29T02:27:33;0.93;;;0.77;;
19024;SDS011;9645;51.448;6.260;2022-12-29T02:30:34;1.00;;;0.80;;
19024;SDS011;9645;51.448;6.260;2022-12-29T02:33:19;1.10;;;1.00;;
19024;SDS011;9645;51.448;6.260;2022-12-29T02:35:56;1.30;;;0.75;;
19024;SDS011;9645;51.448;6.260;2022-12-29T02:38:41;3.40;;;1.10;;
19024;SDS011;9645;51.448;6.260;2022-12-29T02:41:18;1.45;;;0.98;;
19024;SDS011;9645;51.448;6.260;2022-12-29T02:43:49;1.98;;;0.90;;
19024;SDS011;9645;51.448;6.260;2022-12-29T02:46:23;1.35;;;0.70;;
19024;SDS011;9645;51.448;6.260;2022-12-29T02:49:01;3.80;;;1.00;;
19024;SDS011;9645;51.448;6.260;2022-12-29T02:51:36;1.15;;;1.05;;
19024;SDS011;9645;51.448;6.260;2022-12-29T02:54:10;1.00;;;0.90;;
19024;SDS011;9645;51.448;6.260;2022-12-29T02:56:54;1.15;;;0.80;;
19024;SDS011;9645;51.448;6.260;2022-12-29T02:59:21;6.55;;;1.00;;
19024;SDS011;9645;51.448;6.260;2022-12-29T03:01:59;4.00;;;0.93;;
19024;SDS011;9645;51.448;6.260;2022-12-29T03:04:47;2.17;;;1.02;;
19024;SDS011;9645;51.448;6.260;2022-12-29T03:07:27;3.20;;;1.00;;
19024;SDS011;9645;51.448;6.260;2022-12-29T03:10:06;1.13;;;0.80;;
19024;SDS011;9645;51.448;6.260;2022-12-29T03:12:41;2.15;;;0.85;;
19024;SDS011;9645;51.448;6.260;2022-12-29T03:15:33;2.20;;;1.08;;
19024;SDS011;9645;51.448;6.260;2022-12-29T03:18:25;2.75;;;1.20;;
19024;SDS011;9645;51.448;6.260;2022-12-29T03:21:02;1.50;;;0.98;;
19024;SDS011;9645;51.448;6.260;2022-12-29T03:23:31;4.03;;;1.00;;
19024;SDS011;9645;51.448;6.260;2022-12-29T03:26:01;2.42;;;1.20;;
19024;SDS011;9645;51.448;6.260;2022-12-29T03:28:34;1.02;;;0.93;;
19024;SDS011;9645;51.448;6.260;2022-12-29T03:31:04;6.35;;;1.00;;
19024;SDS011;9645;51.448;6.260;2022-12-29T03:33:35;3.13;;;0.90;;
19024;SDS011;9645;51.448;6.260;2022-12-29T03:36:04;2.15;;;0.70;;
19024;SDS011;9645;51.448;6.260;2022-12-29T03:38:35;1.88;;;0.82;;
19024;SDS011;9645;51.448;6.260;2022-12-29T03:41:07;1.15;;;0.70;;
19024;SDS011;9645;51.448;6.260;2022-12-29T03:43:37;3.22;;;0.70;;
19024;SDS011;9645;51.448;6.260;2022-12-29T03:46:05;0.60;;;0.60;;
19024;SDS011;9645;51.448;6.260;2022-12-29T03:48:32;2.85;;;0.70;;
19024;SDS011;9645;51.448;6.260;2022-12-29T03:51:00;0.80;;;0.70;;
19024;SDS011;9645;51.448;6.260;2022-12-29T03:53:27;0.60;;;0.60;;
19024;SDS011;9645;51.448;6.260;2022-12-29T03:55:54;0.73;;;0.70;;
19024;SDS011;9645;51.448;6.260;2022-12-29T03:58:21;3.75;;;0.85;;
19024;SDS011;9645;51.448;6.260;2022-12-29T04:00:48;0.90;;;0.70;;
19024;SDS011;9645;51.448;6.260;2022-12-29T04:03:15;1.08;;;0.63;;
19024;SDS011;9645;51.448;6.260;2022-12-29T04:05:42;0.50;;;0.50;;
19024;SDS011;9645;51.448;6.260;2022-12-29T04:08:10;0.80;;;0.40;;
19024;SDS011;9645;51.448;6.260;2022-12-29T04:10:37;0.50;;;0.40;;
19024;SDS011;9645;51.448;6.260;2022-12-29T04:13:04;0.30;;;0.30;;
19024;SDS011;9645;51.448;6.260;2022-12-29T04:15:31;0.73;;;0.55;;
19024;SDS011;9645;51.448;6.260;2022-12-29T04:17:58;3.80;;;0.40;;
19024;SDS011;9645;51.448;6.260;2022-12-29T04:20:25;0.57;;;0.40;;
19024;SDS011;9645;51.448;6.260;2022-12-29T04:23:10;1.35;;;0.40;;
19024;SDS011;9645;51.448;6.260;2022-12-29T04:25:37;0.77;;;0.45;;
19024;SDS011;9645;51.448;6.260;2022-12-29T04:28:04;1.83;;;0.38;;
19024;SDS011;9645;51.448;6.260;2022-12-29T04:30:32;0.82;;;0.47;;
19024;SDS011;9645;51.448;6.260;2022-12-29T04:32:59;2.47;;;0.50;;
19024;SDS011;9645;51.448;6.260;2022-12-29T04:35:26;6.00;;;0.75;;
19024;SDS011;9645;51.448;6.260;2022-12-29T04:37:53;5.88;;;0.57;;
19024;SDS011;9645;51.448;6.260;2022-12-29T04:40:22;0.60;;;0.40;;
19024;SDS011;9645;51.448;6.260;2022-12-29T04:42:49;5.65;;;0.52;;
19024;SDS011;9645;51.448;6.260;2022-12-29T04:45:16;1.08;;;0.50;;
19024;SDS011;9645;51.448;6.260;2022-12-29T04:47:43;2.88;;;0.55;;
19024;SDS011;9645;51.448;6.260;2022-12-29T04:50:10;0.77;;;0.77;;
19024;SDS011;9645;51.448;6.260;2022-12-29T04:52:38;1.90;;;0.50;;
19024;SDS011;9645;51.448;6.260;2022-12-29T04:55:05;2.47;;;0.50;;
19024;SDS011;9645;51.448;6.260;2022-12-29T04:57:34;4.10;;;0.60;;
19024;SDS011;9645;51.448;6.260;2022-12-29T05:00:02;0.80;;;0.50;;
19024;SDS011;9645;51.448;6.260;2022-12-29T05:02:30;5.38;;;0.50;;
19024;SDS011;9645;51.448;6.260;2022-12-29T05:04:57;2.67;;;0.60;;
19024;SDS011;9645;51.448;6.260;2022-12-29T05:07:24;2.42;;;0.55;;
19024;SDS011;9645;51.448;6.260;2022-12-29T05:09:51;0.50;;;0.40;;
19024;SDS011;9645;51.448;6.260;2022-12-29T05:12:18;3.30;;;0.50;;
19024;SDS011;9645;51.448;6.260;2022-12-29T05:14:47;0.60;;;0.43;;
19024;SDS011;9645;51.448;6.260;2022-12-29T05:17:14;3.17;;;0.50;;
19024;SDS011;9645;51.448;6.260;2022-12-29T05:19:40;0.40;;;0.40;;
19024;SDS011;9645;51.448;6.260;2022-12-29T05:22:07;1.65;;;0.50;;
19024;SDS011;9645;51.448;6.260;2022-12-29T05:24:34;1.23;;;0.60;;
19024;SDS011;9645;51.448;6.260;2022-12-29T05:27:01;3.05;;;0.70;;
19024;SDS011;9645;51.448;6.260;2022-12-29T05:29:28;4.35;;;0.50;;
19024;SDS011;9645;51.448;6.260;2022-12-29T05:31:56;0.82;;;0.57;;
19024;SDS011;9645;51.448;6.260;2022-12-29T05:34:23;2.60;;;0.75;;
19024;SDS011;9645;51.448;6.260;2022-12-29T05:36:50;9.27;;;0.60;;
19024;SDS011;9645;51.448;6.260;2022-12-29T05:39:18;2.88;;;0.68;;
19024;SDS011;9645;51.448;6.260;2022-12-29T05:41:44;2.80;;;0.88;;
19024;SDS011;9645;51.448;6.260;2022-12-29T05:44:11;2.50;;;0.88;;
19024;SDS011;9645;51.448;6.260;2022-12-29T05:46:39;2.33;;;0.70;;
19024;SDS011;9645;51.448;6.260;2022-12-29T05:49:08;4.68;;;1.05;;
19024;SDS011;9645;51.448;6.260;2022-12-29T05:51:35;5.28;;;0.75;;
19024;SDS011;9645;51.448;6.260;2022-12-29T05:54:16;3.53;;;0.82;;
19024;SDS011;9645;51.448;6.260;2022-12-29T05:56:44;4.72;;;0.90;;
19024;SDS011;9645;51.448;6.260;2022-12-29T05:59:12;1.65;;;0.70;;
19024;SDS011;9645;51.448;6.260;2022-12-29T06:01:40;0.50;;;0.30;;
19024;SDS011;9645;51.448;6.260;2022-12-29T06:04:06;2.22;;;0.70;;
19024;SDS011;9645;51.448;6.260;2022-12-29T06:06:35;2.22;;;1.00;;
19024;SDS011;9645;51.448;6.260;2022-12-29T06:09:02;11.15;;;0.70;;
19024;SDS011;9645;51.448;6.260;2022-12-29T06:11:29;5.25;;;0.90;;
19024;SDS011;9645;51.448;6.260;2022-12-29T06:13:56;5.88;;;0.77;;
19024;SDS011;9645;51.448;6.260;2022-12-29T06:16:23;4.53;;;0.85;;
19024;SDS011;9645;51.448;6.260;2022-12-29T06:18:50;6.43;;;0.88;;
19024;SDS011;9645;51.448;6.260;2022-12-29T06:21:18;1.73;;;0.70;;
19024;SDS011;9645;51.448;6.260;2022-12-29T06:23:45;3.50;;;0.77;;
19024;SDS011;9645;51.448;6.260;2022-12-29T06:26:12;2.90;;;0.80;;
19024;SDS011;9645;51.448;6.260;2022-12-29T06:28:39;4.72;;;0.60;;
19024;SDS011;9645;51.448;6.260;2022-12-29T06:31:08;4.18;;;0.75;;
19024;SDS011;9645;51.448;6.260;2022-12-29T06:33:36;7.97;;;1.42;;
19024;SDS011;9645;51.448;6.260;2022-12-29T06:36:03;2.05;;;1.00;;
19024;SDS011;9645;51.448;6.260;2022-12-29T06:38:32;2.15;;;0.82;;
19024;SDS011;9645;51.448;6.260;2022-12-29T06:41:00;1.77;;;1.60;;
19024;SDS011;9645;51.448;6.260;2022-12-29T06:43:27;3.90;;;1.10;;
19024;SDS011;9645;51.448;6.260;2022-12-29T06:45:55;9.13;;;0.90;;
19024;SDS011;9645;51.448;6.260;2022-12-29T06:48:22;1.75;;;0.70;;
19024;SDS011;9645;51.448;6.260;2022-12-29T06:50:49;7.70;;;1.08;;
19024;SDS011;9645;51.448;6.260;2022-12-29T06:53:16;6.00;;;1.00;;
19024;SDS011;9645;51.448;6.260;2022-12-29T06:55:44;1.30;;;0.60;;
19024;SDS011;9645;51.448;6.260;2022-12-29T06:58:12;2.25;;;0.90;;
19024;SDS011;9645;51.448;6.260;2022-12-29T07:00:42;4.10;;;0.50;;
19024;SDS011;9645;51.448;6.260;2022-12-29T07:03:09;4.82;;;0.80;;
19024;SDS011;9645;51.448;6.260;2022-12-29T07:05:36;4.25;;;1.20;;
19024;SDS011;9645;51.448;6.260;2022-12-29T07:08:03;5.15;;;1.20;;
19024;SDS011;9645;51.448;6.260;2022-12-29T07:10:31;3.60;;;0.82;;
19024;SDS011;9645;51.448;6.260;2022-12-29T07:13:01;6.07;;;1.02;;
19024;SDS011;9645;51.448;6.260;2022-12-29T07:15:28;17.25;;;1.15;;
19024;SDS011;9645;51.448;6.260;2022-12-29T07:17:55;1.70;;;0.80;;
19024;SDS011;9645;51.448;6.260;2022-12-29T07:20:22;4.30;;;0.98;;
19024;SDS011;9645;51.448;6.260;2022-12-29T07:22:49;7.93;;;1.48;;
19024;SDS011;9645;51.448;6.260;2022-12-29T07:25:21;4.30;;;1.00;;
19024;SDS011;9645;51.448;6.260;2022-12-29T07:27:50;4.53;;;1.00;;
19024;SDS011;9645;51.448;6.260;2022-12-29T07:30:18;6.28;;;0.80;;
19024;SDS011;9645;51.448;6.260;2022-12-29T07:32:46;7.38;;;0.85;;
19024;SDS011;9645;51.448;6.260;2022-12-29T07:35:13;0.95;;;0.70;;
19024;SDS011;9645;51.448;6.260;2022-12-29T07:37:40;4.25;;;1.08;;
19024;SDS011;9645;51.448;6.260;2022-12-29T07:40:08;3.78;;;0.88;;
19024;SDS011;9645;51.448;6.260;2022-12-29T07:42:36;1.70;;;0.88;;
19024;SDS011;9645;51.448;6.260;2022-12-29T07:45:03;5.90;;;1.08;;
19024;SDS011;9645;51.448;6.260;2022-12-29T07:47:32;7.65;;;1.13;;
19024;SDS011;9645;51.448;6.260;2022-12-29T07:49:59;3.67;;;1.13;;
19024;SDS011;9645;51.448;6.260;2022-12-29T07:52:26;5.07;;;1.00;;
19024;SDS011;9645;51.448;6.260;2022-12-29T07:54:53;4.50;;;0.90;;
19024;SDS011;9645;51.448;6.260;2022-12-29T07:57:20;7.10;;;1.08;;
19024;SDS011;9645;51.448;6.260;2022-12-29T07:59:47;7.18;;;0.82;;
19024;SDS011;9645;51.448;6.260;2022-12-29T08:02:14;2.97;;;0.90;;
19024;SDS011;9645;51.448;6.260;2022-12-29T08:04:42;6.25;;;1.10;;
19024;SDS011;9645;51.448;6.260;2022-12-29T08:07:09;4.05;;;0.80;;
19024;SDS011;9645;51.448;6.260;2022-12-29T08:09:36;9.25;;;1.38;;
19024;SDS011;9645;51.448;6.260;2022-12-29T08:12:03;5.53;;;1.10;;
19024;SDS011;9645;51.448;6.260;2022-12-29T08:14:30;8.95;;;1.10;;
19024;SDS011;9645;51.448;6.260;2022-12-29T08:16:57;9.15;;;1.20;;
19024;SDS011;9645;51.448;6.260;2022-12-29T08:19:24;14.25;;;0.93;;
19024;SDS011;9645;51.448;6.260;2022-12-29T08:21:53;5.65;;;0.95;;
19024;SDS011;9645;51.448;6.260;2022-12-29T08:24:20;4.35;;;1.20;;
19024;SDS011;9645;51.448;6.260;2022-12-29T08:26:47;7.70;;;1.52;;
19024;SDS011;9645;51.448;6.260;2022-12-29T08:29:15;3.78;;;0.95;;
19024;SDS011;9645;51.448;6.260;2022-12-29T08:31:43;22.48;;;1.55;;
19024;SDS011;9645;51.448;6.260;2022-12-29T08:34:09;4.72;;;0.60;;
19024;SDS011;9645;51.448;6.260;2022-12-29T08:36:36;15.10;;;1.15;;
19024;SDS011;9645;51.448;6.260;2022-12-29T08:39:05;6.65;;;1.30;;
19024;SDS011;9645;51.448;6.260;2022-12-29T08:41:32;8.02;;;1.20;;
19024;SDS011;9645;51.448;6.260;2022-12-29T08:43:59;5.28;;;0.60;;
19024;SDS011;9645;51.448;6.260;2022-12-29T08:46:26;8.07;;;1.33;;
19024;SDS011;9645;51.448;6.260;2022-12-29T08:48:53;6.50;;;0.98;;
19024;SDS011;9645;51.448;6.260;2022-12-29T08:51:20;3.53;;;1.10;;
19024;SDS011;9645;51.448;6.260;2022-12-29T08:53:47;4.25;;;1.15;;
19024;SDS011;9645;51.448;6.260;2022-12-29T08:56:15;2.58;;;0.85;;
19024;SDS011;9645;51.448;6.260;2022-12-29T08:58:43;8.15;;;0.90;;
19024;SDS011;9645;51.448;6.260;2022-12-29T09:01:10;7.15;;;1.20;;
19024;SDS011;9645;51.448;6.260;2022-12-29T09:03:37;8.57;;;1.58;;
19024;SDS011;9645;51.448;6.260;2022-12-29T09:06:05;14.73;;;1.70;;
19024;SDS011;9645;51.448;6.260;2022-12-29T09:08:33;4.78;;;1.10;;
19024;SDS011;9645;51.448;6.260;2022-12-29T09:11:05;13.98;;;1.67;;
19024;SDS011;9645;51.448;6.260;2022-12-29T09:13:35;8.02;;;1.45;;
19024;SDS011;9645;51.448;6.260;2022-12-29T09:16:02;3.35;;;1.00;;
19024;SDS011;9645;51.448;6.260;2022-12-29T09:18:29;11.70;;;1.10;;
19024;SDS011;9645;51.448;6.260;2022-12-29T09:20:57;4.72;;;1.42;;
19024;SDS011;9645;51.448;6.260;2022-12-29T09:23:24;6.78;;;1.00;;
19024;SDS011;9645;51.448;6.260;2022-12-29T09:25:52;4.47;;;0.98;;
19024;SDS011;9645;51.448;6.260;2022-12-29T09:28:19;12.27;;;1.70;;
19024;SDS011;9645;51.448;6.260;2022-12-29T09:30:48;5.95;;;0.93;;
19024;SDS011;9645;51.448;6.260;2022-12-29T09:33:16;11.88;;;1.45;;
19024;SDS011;9645;51.448;6.260;2022-12-29T09:35:43;5.95;;;1.20;;
19024;SDS011;9645;51.448;6.260;2022-12-29T09:38:11;5.28;;;1.10;;
19024;SDS011;9645;51.448;6.260;2022-12-29T09:40:38;8.73;;;1.70;;
19024;SDS011;9645;51.448;6.260;2022-12-29T09:43:12;7.72;;;1.25;;
19024;SDS011;9645;51.448;6.260;2022-12-29T09:45:57;5.50;;;0.98;;
19024;SDS011;9645;51.448;6.260;2022-12-29T09:48:34;4.75;;;0.80;;
19024;SDS011;9645;51.448;6.260;2022-12-29T09:51:08;9.50;;;1.30;;
19024;SDS011;9645;51.448;6.260;2022-12-29T09:53:40;3.47;;;0.80;;
19024;SDS011;9645;51.448;6.260;2022-12-29T09:56:11;5.35;;;0.93;;
19024;SDS011;9645;51.448;6.260;2022-12-29T09:58:44;9.38;;;1.10;;
19024;SDS011;9645;51.448;6.260;2022-12-29T10:01:21;5.05;;;1.10;;
19024;SDS011;9645;51.448;6.260;2022-12-29T10:03:55;6.72;;;1.42;;
19024;SDS011;9645;51.448;6.260;2022-12-29T10:06:24;10.18;;;1.27;;
19024;SDS011;9645;51.448;6.260;2022-12-29T10:09:00;6.75;;;1.15;;
19024;SDS011;9645;51.448;6.260;2022-12-29T10:11:35;3.47;;;1.00;;
19024;SDS011;9645;51.448;6.260;2022-12-29T10:14:30;2.58;;;1.02;;
19024;SDS011;9645;51.448;6.260;2022-12-29T10:17:10;8.18;;;1.20;;
19024;SDS011;9645;51.448;6.260;2022-12-29T10:23:01;3.83;;;1.20;;
19024;SDS011;9645;51.448;6.260;2022-12-29T10:25:39;9.38;;;0.85;;
19024;SDS011;9645;51.448;6.260;2022-12-29T10:28:10;7.90;;;1.50;;
19024;SDS011;9645;51.448;6.260;2022-12-29T10:30:46;5.47;;;0.90;;
19024;SDS011;9645;51.448;6.260;2022-12-29T10:33:17;12.43;;;1.40;;
19024;SDS011;9645;51.448;6.260;2022-12-29T10:35:46;5.45;;;1.00;;
19024;SDS011;9645;51.448;6.260;2022-12-29T10:38:15;4.93;;;1.10;;
19024;SDS011;9645;51.448;6.260;2022-12-29T10:40:50;5.13;;;1.00;;
19024;SDS011;9645;51.448;6.260;2022-12-29T10:43:24;11.18;;;1.50;;
19024;SDS011;9645;51.448;6.260;2022-12-29T10:45:54;10.35;;;1.52;;
19024;SDS011;9645;51.448;6.260;2022-12-29T10:48:25;3.72;;;0.95;;
19024;SDS011;9645;51.448;6.260;2022-12-29T10:50:57;5.13;;;0.90;;
19024;SDS011;9645;51.448;6.260;2022-12-29T10:53:32;5.75;;;0.95;;
19024;SDS011;9645;51.448;6.260;2022-12-29T10:56:04;5.78;;;1.10;;
19024;SDS011;9645;51.448;6.260;2022-12-29T10:58:41;4.55;;;0.93;;
19024;SDS011;9645;51.448;6.260;2022-12-29T11:01:09;6.65;;;1.30;;
19024;SDS011;9645;51.448;6.260;2022-12-29T11:03:47;8.95;;;1.50;;
19024;SDS011;9645;51.448;6.260;2022-12-29T11:06:21;4.05;;;1.00;;
19024;SDS011;9645;51.448;6.260;2022-12-29T11:08:54;6.38;;;1.20;;
19024;SDS011;9645;51.448;6.260;2022-12-29T11:11:24;7.25;;;1.08;;
19024;SDS011;9645;51.448;6.260;2022-12-29T11:13:56;5.55;;;1.67;;
19024;SDS011;9645;51.448;6.260;2022-12-29T11:16:28;19.58;;;1.65;;
19024;SDS011;9645;51.448;6.260;2022-12-29T11:18:58;6.95;;;1.35;;
19024;SDS011;9645;51.448;6.260;2022-12-29T11:21:27;6.53;;;1.52;;
19024;SDS011;9645;51.448;6.260;2022-12-29T11:23:58;8.68;;;1.13;;
19024;SDS011;9645;51.448;6.260;2022-12-29T11:26:26;5.20;;;1.00;;
19024;SDS011;9645;51.448;6.260;2022-12-29T11:29:05;10.15;;;1.35;;
19024;SDS011;9645;51.448;6.260;2022-12-29T11:31:54;8.52;;;1.27;;
19024;SDS011;9645;51.448;6.260;2022-12-29T11:34:25;5.60;;;1.33;;
19024;SDS011;9645;51.448;6.260;2022-12-29T11:36:58;5.55;;;0.90;;
19024;SDS011;9645;51.448;6.260;2022-12-29T11:39:32;6.22;;;0.80;;
19024;SDS011;9645;51.448;6.260;2022-12-29T11:42:03;7.88;;;1.15;;
19024;SDS011;9645;51.448;6.260;2022-12-29T11:44:35;4.40;;;0.98;;
19024;SDS011;9645;51.448;6.260;2022-12-29T11:47:04;6.03;;;1.05;;
19024;SDS011;9645;51.448;6.260;2022-12-29T11:49:37;11.10;;;1.52;;
19024;SDS011;9645;51.448;6.260;2022-12-29T11:52:06;7.03;;;1.73;;
19024;SDS011;9645;51.448;6.260;2022-12-29T11:54:34;8.73;;;1.65;;
19024;SDS011;9645;51.448;6.260;2022-12-29T11:57:12;6.45;;;0.80;;
19024;SDS011;9645;51.448;6.260;2022-12-29T11:59:42;5.55;;;1.20;;
19024;SDS011;9645;51.448;6.260;2022-12-29T12:05:10;4.75;;;1.25;;
19024;SDS011;9645;51.448;6.260;2022-12-29T12:07:41;16.02;;;1.45;;
19024;SDS011;9645;51.448;6.260;2022-12-29T12:10:13;15.93;;;1.63;;
19024;SDS011;9645;51.448;6.260;2022-12-29T12:12:45;9.52;;;0.85;;
19024;SDS011;9645;51.448;6.260;2022-12-29T12:15:18;7.32;;;1.58;;
19024;SDS011;9645;51.448;6.260;2022-12-29T12:17:50;9.95;;;1.85;;
19024;SDS011;9645;51.448;6.260;2022-12-29T12:20:22;11.18;;;1.55;;
19024;SDS011;9645;51.448;6.260;2022-12-29T12:22:58;5.43;;;1.10;;
19024;SDS011;9645;51.448;6.260;2022-12-29T12:25:34;4.35;;;1.20;;
19024;SDS011;9645;51.448;6.260;2022-12-29T12:28:09;17.90;;;1.85;;
19024;SDS011;9645;51.448;6.260;2022-12-29T12:30:57;6.22;;;1.42;;
19024;SDS011;9645;51.448;6.260;2022-12-29T12:33:27;7.75;;;1.13;;
19024;SDS011;9645;51.448;6.260;2022-12-29T12:36:04;13.55;;;1.50;;
19024;SDS011;9645;51.448;6.260;2022-12-29T12:38:45;11.35;;;1.70;;
19024;SDS011;9645;51.448;6.260;2022-12-29T12:41:21;3.45;;;1.35;;
19024;SDS011;9645;51.448;6.260;2022-12-29T12:44:00;7.47;;;1.27;;
19024;SDS011;9645;51.448;6.260;2022-12-29T12:46:46;8.50;;;1.42;;
19024;SDS011;9645;51.448;6.260;2022-12-29T12:52:42;7.75;;;2.03;;
19024;SDS011;9645;51.448;6.260;2022-12-29T12:55:25;12.85;;;1.70;;
19024;SDS011;9645;51.448;6.260;2022-12-29T12:58:10;10.02;;;1.67;;
19024;SDS011;9645;51.448;6.260;2022-12-29T13:00:43;14.18;;;2.28;;
19024;SDS011;9645;51.448;6.260;2022-12-29T13:03:21;11.48;;;2.25;;
19024;SDS011;9645;51.448;6.260;2022-12-29T13:06:02;3.83;;;1.42;;
19024;SDS011;9645;51.448;6.260;2022-12-29T13:11:49;7.88;;;1.45;;
19024;SDS011;9645;51.448;6.260;2022-12-29T13:14:30;12.90;;;1.55;;
19024;SDS011;9645;51.448;6.260;2022-12-29T13:17:13;9.77;;;1.38;;
19024;SDS011;9645;51.448;6.260;2022-12-29T13:19:46;13.85;;;1.23;;
19024;SDS011;9645;51.448;6.260;2022-12-29T13:22:20;7.65;;;1.50;;
19024;SDS011;9645;51.448;6.260;2022-12-29T13:24:56;2.85;;;0.90;;
19024;SDS011;9645;51.448;6.260;2022-12-29T13:27:43;7.20;;;0.95;;
19024;SDS011;9645;51.448;6.260;2022-12-29T13:30:15;11.77;;;1.30;;
19024;SDS011;9645;51.448;6.260;2022-12-29T13:32:48;9.50;;;1.30;;
19024;SDS011;9645;51.448;6.260;2022-12-29T13:38:16;14.52;;;1.98;;
19024;SDS011;9645;51.448;6.260;2022-12-29T13:40:47;9.18;;;1.27;;
19024;SDS011;9645;51.448;6.260;2022-12-29T13:43:18;4.65;;;1.30;;
19024;SDS011;9645;51.448;6.260;2022-12-29T13:45:49;8.27;;;1.30;;
19024;SDS011;9645;51.448;6.260;2022-12-29T13:48:24;1.40;;;1.00;;
19024;SDS011;9645;51.448;6.260;2022-12-29T13:51:00;7.55;;;0.90;;
19024;SDS011;9645;51.448;6.260;2022-12-29T13:53:30;8.02;;;1.00;;
19024;SDS011;9645;51.448;6.260;2022-12-29T13:56:06;14.15;;;1.40;;
19024;SDS011;9645;51.448;6.260;2022-12-29T13:58:39;5.53;;;1.50;;
19024;SDS011;9645;51.448;6.260;2022-12-29T14:01:13;5.25;;;1.02;;
19024;SDS011;9645;51.448;6.260;2022-12-29T14:03:47;6.20;;;1.70;;
19024;SDS011;9645;51.448;6.260;2022-12-29T14:06:18;9.82;;;1.70;;
19024;SDS011;9645;51.448;6.260;2022-12-29T14:08:49;3.00;;;0.85;;
19024;SDS011;9645;51.448;6.260;2022-12-29T14:11:20;5.30;;;1.08;;
19024;SDS011;9645;51.448;6.260;2022-12-29T14:13:52;10.60;;;1.13;;
19024;SDS011;9645;51.448;6.260;2022-12-29T14:16:25;7.10;;;1.50;;
19024;SDS011;9645;51.448;6.260;2022-12-29T14:18:55;5.07;;;1.70;;
19024;SDS011;9645;51.448;6.260;2022-12-29T14:21:23;3.03;;;1.00;;
19024;SDS011;9645;51.448;6.260;2022-12-29T14:23:56;11.30;;;1.80;;
19024;SDS011;9645;51.448;6.260;2022-12-29T14:26:42;7.72;;;1.30;;
19024;SDS011;9645;51.448;6.260;2022-12-29T14:29:41;2.03;;;0.90;;
19024;SDS011;9645;51.448;6.260;2022-12-29T14:38:06;5.13;;;1.00;;
19024;SDS011;9645;51.448;6.260;2022-12-29T14:40:41;7.68;;;1.30;;
19024;SDS011;9645;51.448;6.260;2022-12-29T14:43:11;13.85;;;1.80;;
19024;SDS011;9645;51.448;6.260;2022-12-29T14:45:42;4.97;;;1.25;;
19024;SDS011;9645;51.448;6.260;2022-12-29T14:48:34;7.00;;;1.38;;
19024;SDS011;9645;51.448;6.260;2022-12-29T14:53:51;7.03;;;0.95;;
19024;SDS011;9645;51.448;6.260;2022-12-29T14:56:18;6.03;;;1.23;;
19024;SDS011;9645;51.448;6.260;2022-12-29T14:58:51;8.98;;;1.00;;
19024;SDS011;9645;51.448;6.260;2022-12-29T15:01:22;8.15;;;1.45;;
19024;SDS011;9645;51.448;6.260;2022-12-29T15:03:54;3.22;;;1.20;;
19024;SDS011;9645;51.448;6.260;2022-12-29T15:06:24;3.70;;;0.90;;
19024;SDS011;9645;51.448;6.260;2022-12-29T15:08:54;7.50;;;1.58;;
19024;SDS011;9645;51.448;6.260;2022-12-29T15:11:30;5.07;;;1.17;;
19024;SDS011;9645;51.448;6.260;2022-12-29T15:16:57;5.85;;;1.20;;
19024;SDS011;9645;51.448;6.260;2022-12-29T15:19:25;7.80;;;1.00;;
19024;SDS011;9645;51.448;6.260;2022-12-29T15:21:53;8.63;;;1.27;;
19024;SDS011;9645;51.448;6.260;2022-12-29T15:24:20;6.40;;;1.45;;
19024;SDS011;9645;51.448;6.260;2022-12-29T15:26:49;5.88;;;1.73;;
19024;SDS011;9645;51.448;6.260;2022-12-29T15:29:31;7.70;;;1.10;;
19024;SDS011;9645;51.448;6.260;2022-12-29T15:32:14;7.70;;;1.33;;
19024;SDS011;9645;51.448;6.260;2022-12-29T15:34:43;8.23;;;1.33;;
19024;SDS011;9645;51.448;6.260;2022-12-29T15:37:15;8.10;;;1.20;;
19024;SDS011;9645;51.448;6.260;2022-12-29T15:39:44;8.50;;;1.45;;
19024;SDS011;9645;51.448;6.260;2022-12-29T15:42:16;9.50;;;1.42;;
19024;SDS011;9645;51.448;6.260;2022-12-29T15:44:53;6.38;;;1.00;;
19024;SDS011;9645;51.448;6.260;2022-12-29T15:47:22;8.35;;;1.55;;
19024;SDS011;9645;51.448;6.260;2022-12-29T15:49:52;6.72;;;1.38;;
19024;SDS011;9645;51.448;6.260;2022-12-29T15:52:23;11.00;;;1.50;;
19024;SDS011;9645;51.448;6.260;2022-12-29T15:54:51;9.73;;;1.45;;
19024;SDS011;9645;51.448;6.260;2022-12-29T15:57:21;4.35;;;1.05;;
19024;SDS011;9645;51.448;6.260;2022-12-29T15:59:49;3.97;;;0.98;;